Aérodrome :
LOGIN :

S'inscrire | Disclaimer

   EN    FR    IT 

 










Légende :    VFR   VFR Marginal   IFR   IFR Intensif   IFR Très Intensif
Visi : 
Plafond : 
>= 8 km
>= 3000ft
5 à 8 km
1000 à 3000 ft
1500m à 5 km
500 à 1000 ft
800 à 1500m
200 à 500 ft
< 800m
< 200 ft
Symboles :   Orages  Brouillard  Fortes neiges  Fortes précipitations  Vent > 20 kt
SIGMETs :   Divers  Orages  Givrage  Turbulence  Onde Orograph.  Cendres Volcan.






- Altitude de l'aérodrome : 266 ft
- Code IATA : NCL


EGNT - Newcastle

DERNIER METAR :
  • 120050Z 26016KT 9999 SCT018 05/04 Q0988

METARs EXPIRÉS :
  • 120020Z 26017KT 9999 SCT017 05/04 Q0989
  • 112350Z 26017KT 9999 FEW020 05/03 Q0989
  • 112320Z 27015KT 9999 SCT020 05/04 Q0989
  • 112250Z 26015G25KT 9999 FEW016 05/03 Q0989

TAF TAF EGNT
Valide du 12 à 00h jusqu'au 13 à 00h UTC


112301Z 1200/1224 26017KT 9999 FEW012 SCT030
PROB40
TEMPO 1200/1203 26020G30KT 6000 SHRA BKN012
BECMG 1203/1206 27007KT
BECMG 1209/1212 30017KT
TEMPO 1209/1222 6000 SHRA BKN012
PROB40
TEMPO 1209/1221 32020G30KT 4000 +SHRA
ATIS : +44 191 214 3400



MET'MAP, la Météo Aéronautique d'un coup d'oeil ! - Copyright ORBIFLY Décembre 2007 - Disclaimer

ORBIFLY MET'MAP TEAM :

Programmation & Développement : Alexandra Zaïnal
Conception & Développement : Baudouin d'Aumeries
Co-Programmation & Développement : Marc-Olivier Méhu
Soutien technique & logistique : Manuel Goepfert

Contact : metmap@orbifly.com




SOURCES & CREDITS :

   NOAA